Terminal Aerodrome Forecast
Issued by NWS

Current Version | Previous Version | Graphics & Text | Print | Product List | Glossary On
Versions: 1 2 3 4 5 6 7 8 9 10 11 12 13 14 15 16 17 18 19 20 21
000
FTUS41 KILN 011100 RRA
TAFLUK
TAF
KLUK 011142Z 0112/0212 00000KT 5SM -SNPL SCT025 OVC040
      TEMPO 0113/0115 -FZRAPL BKN025
     FM011500 20005KT 5SM -RA OVC018
     FM011900 24006KT 5SM -RA OVC018
     FM012200 28006KT 3SM -SN OVC015
      TEMPO 0200/0204 1SM -SN OVC009
     FM020400 31008KT P6SM OVC015=

USA.gov is the U.S. government's official web portal to all federal, state and local government web resources and services.